Time;durP1;ratioP1;P1;durP2;ratioP2;P2;SDS_P1;SDS_P2;PMS_P1;PMS_P2;Temp;Humidity;BMP_temperature;BMP_pressure;BME280_temperature;BME280_humidity;BME280_pressure;Samples;Min_cycle;Max_cycle;Signal;HPM_P1;HPM_P2
2023/08/04 00:01:33;;;;;;;9.68;5.80;;;;;;;15.27;100.00;100519.06;6196278;23;20020;-71
2023/08/04 00:04:00;;;;;;;5.93;5.43;;;;;;;15.35;100.00;100514.91;6189008;23;20029;-71
2023/08/04 00:06:26;;;;;;;6.30;5.90;;;;;;;14.98;100.00;100442.81;6199829;23;20024;-71
2023/08/04 00:08:53;;;;;;;11.20;5.97;;;;;;;15.23;100.00;100497.28;6202475;23;20024;-71
2023/08/04 00:11:19;;;;;;;6.35;5.72;;;;;;;15.10;100.00;100481.53;6201032;23;20105;-71
2023/08/04 00:13:45;;;;;;;5.70;5.40;;;;;;;15.26;100.00;100522.69;6166744;23;20460;-71
2023/08/04 00:16:12;;;;;;;8.68;5.90;;;;;;;14.32;100.00;100392.16;6207218;23;20545;-71
2023/08/04 00:18:38;;;;;;;5.90;5.50;;;;;;;15.35;100.00;100528.13;6175815;23;20023;-71
2023/08/04 00:21:05;;;;;;;6.35;5.88;;;;;;;15.12;100.00;100499.91;6200823;23;20021;-72
2023/08/04 00:23:31;;;;;;;5.82;5.45;;;;;;;15.21;100.00;100519.53;6151444;23;20080;-72
2023/08/04 00:25:58;;;;;;;5.38;5.07;;;;;;;14.83;100.00;100460.63;6187043;23;20038;-71
2023/08/04 00:28:24;;;;;;;6.30;5.80;;;;;;;15.26;100.00;100523.50;6203912;23;20014;-72
2023/08/04 00:30:51;;;;;;;5.55;5.25;;;;;;;14.08;100.00;100323.53;6206074;23;20034;-71
2023/08/04 00:33:17;;;;;;;5.75;5.35;;;;;;;15.40;100.00;100527.78;6204249;23;20044;-72
2023/08/04 00:35:43;;;;;;;5.60;5.20;;;;;;;13.85;100.00;100265.38;6206239;23;20028;-71
2023/08/04 00:38:10;;;;;;;6.18;5.60;;;;;;;15.43;100.00;100521.41;6177657;23;20103;-71
2023/08/04 00:40:36;;;;;;;5.72;5.35;;;;;;;14.78;100.00;100419.66;6202892;23;20020;-73
2023/08/04 00:43:03;;;;;;;5.70;5.30;;;;;;;15.32;100.00;100522.22;6203866;23;20052;-70
2023/08/04 00:45:31;;;;;;;6.43;5.93;;;;;;;15.29;100.00;100536.50;6200345;23;20034;-71
2023/08/04 00:47:58;;;;;;;6.75;5.50;;;;;;;14.86;100.00;100463.03;6201668;23;20031;-71
2023/08/04 00:50:25;;;;;;;6.28;5.50;;;;;;;15.29;100.00;100533.00;6202216;23;20020;-71
2023/08/04 00:52:52;;;;;;;5.95;5.20;;;;;;;15.15;100.00;100524.31;6171348;23;20569;-71
2023/08/04 00:55:18;;;;;;;6.57;6.07;;;;;;;14.23;100.00;100380.50;6206447;23;20020;-72
2023/08/04 00:57:47;;;;;;;6.28;5.70;;;;;;;14.86;100.00;100525.63;6200114;23;20060;-71
2023/08/04 01:00:13;;;;;;;5.88;5.47;;;;;;;14.22;100.00;100401.72;6202059;23;20040;-71
2023/08/04 01:02:40;;;;;;;5.97;5.57;;;;;;;14.70;100.00;100488.91;6203328;22;20023;-71
2023/08/04 01:05:06;;;;;;;6.20;5.80;;;;;;;15.09;100.00;100535.31;6200749;23;20063;-71
2023/08/04 01:07:39;;;;;;;6.53;6.03;;;;;;;15.29;100.00;100555.00;6189410;23;22584;-71
2023/08/04 01:10:15;;;;;;;6.13;5.63;;;;;;;15.15;100.00;100553.41;6206772;23;20032;-71
2023/08/04 01:13:04;;;;;;;7.00;5.38;;;;;;;15.31;100.00;100579.53;6174671;23;20046;-71
2023/08/04 01:15:31;;;;;;;5.82;5.53;;;;;;;14.92;100.00;100490.81;6203945;23;20021;-72
2023/08/04 01:17:58;;;;;;;5.82;5.43;;;;;;;15.30;100.00;100561.16;6203263;23;20028;-71
2023/08/04 01:20:26;;;;;;;6.40;5.80;;;;;;;14.52;100.00;100433.78;6175211;23;20743;-71
2023/08/04 01:22:53;;;;;;;5.97;5.53;;;;;;;15.10;100.00;100554.69;6173800;23;20020;-71
2023/08/04 01:25:23;;;;;;;6.13;5.72;;;;;;;14.78;100.00;100517.41;6182459;23;20365;-71
2023/08/04 01:28:04;;;;;;;6.03;5.43;;;;;;;14.75;100.00;100531.66;6174878;23;20005;-71
2023/08/04 01:30:32;;;;;;;5.93;5.53;;;;;;;15.04;100.00;100561.25;6163245;23;20028;-71
2023/08/04 01:32:58;;;;;;;5.93;5.45;;;;;;;14.21;100.00;100442.22;6198834;23;20057;-71
2023/08/04 01:35:25;;;;;;;8.43;5.60;;;;;;;14.01;100.00;100417.28;6182824;23;20016;-72
2023/08/04 01:37:52;;;;;;;6.38;5.75;;;;;;;14.63;100.00;100525.47;6157685;23;20032;-72
2023/08/04 01:40:18;;;;;;;5.55;5.22;;;;;;;14.77;100.00;100532.41;6196733;23;20083;-71
2023/08/04 01:42:45;;;;;;;5.68;5.28;;;;;;;15.07;100.00;100573.41;6173427;23;20041;-72
2023/08/04 01:45:11;;;;;;;6.20;5.70;;;;;;;14.96;100.00;100569.75;6170971;23;20662;-72
2023/08/04 01:47:39;;;;;;;6.30;5.68;;;;;;;14.72;100.00;100580.28;6202290;23;20491;-71
2023/08/04 01:50:09;;;;;;;6.93;6.05;;;;;;;14.84;100.00;100580.38;6198310;23;20019;-71
2023/08/04 01:52:36;;;;;;;7.18;5.53;;;;;;;13.83;100.00;100388.63;6200390;23;20134;-71
2023/08/04 01:55:03;;;;;;;6.20;5.72;;;;;;;14.94;100.00;100573.47;6200296;23;20027;-71
2023/08/04 01:57:30;;;;;;;6.18;5.60;;;;;;;14.51;100.00;100545.66;6203246;23;20165;-71
2023/08/04 01:59:56;;;;;;;6.00;5.60;;;;;;;14.26;100.00;100532.50;6203563;23;20587;-71
2023/08/04 02:02:23;;;;;;;6.10;5.60;;;;;;;14.73;100.00;100611.03;6200029;23;20028;-71
2023/08/04 02:04:49;;;;;;;6.20;5.70;;;;;;;14.65;100.00;100586.94;6161250;23;20020;-72
2023/08/04 02:07:16;;;;;;;9.95;5.68;;;;;;;14.83;100.00;100597.16;6176740;23;20083;-71
2023/08/04 02:09:42;;;;;;;8.65;6.05;;;;;;;14.24;100.00;100510.66;6199633;23;20075;-70
2023/08/04 02:12:08;;;;;;;6.18;5.70;;;;;;;14.38;100.00;100557.22;6202730;23;20083;-71
2023/08/04 02:14:35;;;;;;;6.40;6.00;;;;;;;13.73;100.00;100486.00;6173224;23;20023;-71
2023/08/04 02:17:01;;;;;;;9.90;6.10;;;;;;;14.67;100.00;100618.53;6204107;23;20016;-71
2023/08/04 02:19:28;;;;;;;7.95;5.85;;;;;;;14.62;100.00;100607.47;6201180;23;20035;-71
2023/08/04 02:21:54;;;;;;;6.25;5.85;;;;;;;14.43;100.00;100566.47;6201586;23;20030;-71
2023/08/04 02:24:20;;;;;;;6.30;5.80;;;;;;;14.48;100.00;100579.38;6199738;23;20024;-71
2023/08/04 02:26:47;;;;;;;7.28;6.15;;;;;;;14.66;100.00;100625.63;6192211;23;20654;-71
2023/08/04 02:29:13;;;;;;;6.32;5.82;;;;;;;14.60;100.00;100599.66;6166931;23;20526;-71
2023/08/04 02:31:41;;;;;;;6.35;5.82;;;;;;;14.67;100.00;100611.50;6197269;22;20038;-71
2023/08/04 02:34:08;;;;;;;6.18;5.78;;;;;;;14.49;100.00;100584.53;6194728;23;20101;-71
2023/08/04 02:36:34;;;;;;;6.60;6.00;;;;;;;14.61;100.00;100619.81;6173460;23;20478;-70
2023/08/04 02:39:02;;;;;;;6.65;6.10;;;;;;;14.64;100.00;100619.63;6201531;23;20378;-74
2023/08/04 02:41:28;;;;;;;11.98;6.15;;;;;;;14.60;100.00;100622.59;6197187;23;20619;-72
2023/08/04 02:43:55;;;;;;;6.82;6.22;;;;;;;14.09;100.00;100553.00;6203088;23;20028;-71
2023/08/04 02:46:24;;;;;;;11.80;6.18;;;;;;;14.43;100.00;100610.50;6199143;23;20028;-72
2023/08/04 02:48:50;;;;;;;6.85;6.20;;;;;;;14.16;100.00;100569.25;6168028;23;20450;-71
2023/08/04 02:51:17;;;;;;;5.75;5.30;;;;;;;14.55;100.00;100636.06;6171966;23;20088;-72
2023/08/04 02:53:45;;;;;;;6.40;5.80;;;;;;;14.28;100.00;100594.78;6201987;23;20020;-71
2023/08/04 02:56:16;;;;;;;6.03;5.63;;;;;;;14.09;100.00;100553.00;6175688;23;20034;-72
2023/08/04 02:58:44;;;;;;;11.43;6.60;;;;;;;14.63;100.00;100614.44;6171650;23;20565;-72
2023/08/04 03:01:11;;;;;;;7.78;6.05;;;;;;;14.74;100.00;100625.09;6167908;23;20021;-71
2023/08/04 03:03:38;;;;;;;9.07;6.72;;;;;;;14.36;100.00;100559.94;6197358;23;20051;-72
2023/08/04 03:06:05;;;;;;;6.05;5.55;;;;;;;14.73;100.00;100626.03;6202386;23;20054;-72
2023/08/04 03:08:32;;;;;;;8.15;6.45;;;;;;;14.45;100.00;100576.94;6172399;23;20523;-71
2023/08/04 03:10:58;;;;;;;6.90;6.20;;;;;;;14.62;100.00;100612.75;6199307;23;20032;-71
2023/08/04 03:13:25;;;;;;;8.05;6.32;;;;;;;14.26;100.00;100545.72;6197766;23;20517;-71
2023/08/04 03:16:00;;;;;;;9.85;6.25;;;;;;;14.29;100.00;100574.50;6197055;23;20053;-71
2023/08/04 03:18:27;;;;;;;6.25;5.68;;;;;;;14.80;100.00;100632.59;6178361;23;20069;-71
2023/08/04 03:20:54;;;;;;;17.23;6.78;;;;;;;14.28;100.00;100568.41;6201776;23;20777;-72
2023/08/04 03:23:21;;;;;;;6.45;5.93;;;;;;;14.71;100.00;100642.00;6167918;23;20095;-72
2023/08/04 03:25:50;;;;;;;6.22;5.72;;;;;;;14.76;100.00;100645.16;6198851;23;20039;-72
2023/08/04 03:28:17;;;;;;;6.68;6.15;;;;;;;14.69;100.00;100638.63;6197733;23;20046;-72
2023/08/04 03:30:43;;;;;;;6.32;5.85;;;;;;;14.35;100.00;100584.63;6173349;23;20076;-72
2023/08/04 03:33:10;;;;;;;6.60;6.00;;;;;;;14.20;100.00;100576.00;6200043;23;20019;-72
2023/08/04 03:35:36;;;;;;;6.13;5.68;;;;;;;14.83;100.00;100663.22;6172099;23;20028;-72
2023/08/04 03:38:03;;;;;;;6.88;6.18;;;;;;;14.63;100.00;100649.59;6151147;23;20091;-71
2023/08/04 03:40:30;;;;;;;9.43;6.25;;;;;;;14.01;100.00;100506.97;6203470;23;20095;-71
2023/08/04 03:42:56;;;;;;;6.35;5.95;;;;;;;14.61;100.00;100605.78;6202641;23;20029;-72
2023/08/04 03:45:22;;;;;;;6.30;5.80;;;;;;;14.82;100.00;100643.88;6178133;23;20028;-71
2023/08/04 03:47:49;;;;;;;6.18;5.78;;;;;;;14.73;100.00;100661.25;6204779;23;20032;-71
2023/08/04 03:50:15;;;;;;;10.25;6.30;;;;;;;14.83;100.00;100665.84;6201027;23;20032;-73
2023/08/04 03:52:42;;;;;;;6.65;6.05;;;;;;;14.74;100.00;100667.34;6202182;23;20030;-72
2023/08/04 03:55:08;;;;;;;8.02;5.95;;;;;;;14.78;100.00;100676.75;6186276;23;20353;-72
2023/08/04 03:57:35;;;;;;;11.38;6.50;;;;;;;14.09;100.00;100575.91;6200406;23;20031;-72
2023/08/04 04:00:03;;;;;;;7.07;6.38;;;;;;;14.31;100.00;100636.84;6202306;23;20031;-71
2023/08/04 04:02:30;;;;;;;6.63;6.13;;;;;;;14.57;100.00;100689.66;6199942;23;20109;-72
2023/08/04 04:04:56;;;;;;;6.25;5.85;;;;;;;14.74;100.00;100688.50;6206855;23;20024;-71
2023/08/04 04:07:22;;;;;;;6.85;6.18;;;;;;;14.58;100.00;100648.25;6203500;23;20099;-69
2023/08/04 04:09:49;;;;;;;6.75;6.25;;;;;;;14.75;100.00;100683.13;6203331;22;20030;-73
2023/08/04 04:12:15;;;;;;;6.30;5.57;;;;;;;13.87;100.00;100545.72;6178291;23;20024;-73
2023/08/04 04:14:42;;;;;;;6.85;6.25;;;;;;;14.70;100.00;100679.09;6202593;23;20055;-71
2023/08/04 04:17:09;;;;;;;8.40;6.00;;;;;;;14.19;100.00;100619.16;6203768;23;20037;-70
2023/08/04 04:19:35;;;;;;;8.35;6.20;;;;;;;14.71;100.00;100704.53;6178936;23;20044;-70
2023/08/04 04:22:02;;;;;;;8.57;5.90;;;;;;;14.62;100.00;100684.06;6202722;23;20024;-70
2023/08/04 04:24:28;;;;;;;6.30;5.70;;;;;;;14.74;100.00;100712.28;6169584;23;20035;-71
2023/08/04 04:26:55;;;;;;;6.07;5.68;;;;;;;14.69;100.00;100707.31;6204326;23;20016;-71
2023/08/04 04:29:21;;;;;;;6.32;5.82;;;;;;;14.56;100.00;100704.66;6185995;23;20027;-73
2023/08/04 04:31:48;;;;;;;7.80;6.43;;;;;;;13.43;100.00;100511.81;6170487;23;20162;-70
2023/08/04 04:34:15;;;;;;;10.27;6.50;;;;;;;14.35;100.00;100677.91;6203035;23;20024;-70
2023/08/04 04:36:41;;;;;;;6.65;6.00;;;;;;;14.81;100.00;100732.00;6199371;23;20011;-71
2023/08/04 04:39:08;;;;;;;10.30;6.07;;;;;;;14.54;100.00;100682.75;6201545;23;20622;-71
2023/08/04 04:41:35;;;;;;;6.22;5.72;;;;;;;14.60;100.00;100685.97;6200117;23;20059;-71
2023/08/04 04:44:02;;;;;;;7.88;5.93;;;;;;;14.75;100.00;100709.53;6201162;23;20531;-70
2023/08/04 04:46:28;;;;;;;6.40;5.82;;;;;;;14.57;100.00;100671.16;6171447;23;20031;-72
2023/08/04 04:48:55;;;;;;;6.00;5.60;;;;;;;14.69;100.00;100712.59;6205665;23;20798;-71
2023/08/04 04:51:22;;;;;;;6.80;6.30;;;;;;;14.16;100.00;100622.03;6199469;23;20004;-71
2023/08/04 04:53:49;;;;;;;6.10;5.60;;;;;;;14.81;100.00;100731.16;6199859;23;20027;-71
2023/08/04 04:56:15;;;;;;;6.18;5.78;;;;;;;14.53;100.00;100696.06;6176828;23;20083;-72
2023/08/04 04:58:42;;;;;;;6.93;6.30;;;;;;;13.91;100.00;100604.38;6207736;23;20020;-71
2023/08/04 05:01:08;;;;;;;7.75;6.28;;;;;;;14.71;100.00;100718.63;6183292;23;20095;-71
2023/08/04 05:03:36;;;;;;;7.13;6.43;;;;;;;14.61;100.00;100685.84;6192247;23;20041;-70
2023/08/04 05:06:02;;;;;;;9.07;6.22;;;;;;;14.99;100.00;100736.97;6173359;23;20020;-71
2023/08/04 05:08:29;;;;;;;6.68;6.07;;;;;;;14.84;100.00;100700.09;6202598;23;20023;-71
2023/08/04 05:10:55;;;;;;;7.35;6.75;;;;;;;15.23;100.00;100743.16;6204827;23;20090;-71
2023/08/04 05:13:21;;;;;;;11.15;6.32;;;;;;;15.24;100.00;100731.66;6204089;23;20573;-71
2023/08/04 05:15:49;;;;;;;8.52;6.32;;;;;;;15.07;100.00;100701.09;6176083;23;20036;-71
2023/08/04 05:18:16;;;;;;;6.60;5.93;;;;;;;15.24;100.00;100741.38;6200835;23;20032;-70
2023/08/04 05:20:44;;;;;;;11.98;6.47;;;;;;;15.31;100.00;100743.47;6172323;23;20093;-71
2023/08/04 05:23:11;;;;;;;9.93;6.20;;;;;;;15.49;100.00;100740.47;6199370;23;20024;-71
2023/08/04 05:25:37;;;;;;;6.47;5.78;;;;;;;15.33;100.00;100703.69;6200730;23;20035;-71
2023/08/04 05:28:24;;;;;;;6.72;6.13;;;;;;;15.53;100.00;100732.19;6205317;23;20023;-71
2023/08/04 05:31:08;;;;;;;6.38;5.80;;;;;;;15.88;100.00;100717.38;6173433;23;20044;-71
2023/08/04 05:33:35;;;;;;;6.55;5.93;;;;;;;14.91;100.00;100568.38;6197796;23;20043;-71
2023/08/04 05:36:02;;;;;;;6.88;5.93;;;;;;;15.68;100.00;100692.34;6183678;23;20033;-71
2023/08/04 05:38:28;;;;;;;6.38;5.78;;;;;;;15.34;100.00;100616.31;6203135;23;20092;-71
2023/08/04 05:41:01;;;;;;;8.43;6.45;;;;;;;16.14;100.00;100723.38;6172918;23;20453;-71
2023/08/04 05:43:28;;;;;;;6.78;6.15;;;;;;;15.42;100.00;100549.66;6171933;23;20012;-72
2023/08/04 05:45:59;;;;;;;7.10;6.50;;;;;;;16.19;100.00;100678.84;6198790;23;20024;-71
2023/08/04 05:48:26;;;;;;;7.07;6.37;;;;;;;16.29;100.00;100666.56;6170537;23;20036;-71
2023/08/04 05:50:55;;;;;;;6.07;5.50;;;;;;;16.30;100.00;100651.56;6197743;23;20376;-71
2023/08/04 05:53:22;;;;;;;6.75;6.10;;;;;;;16.46;100.00;100675.88;6175454;23;20088;-71
2023/08/04 05:55:48;;;;;;;7.13;6.35;;;;;;;15.69;100.00;100559.94;6199133;23;20024;-72
2023/08/04 05:58:15;;;;;;;9.77;6.57;;;;;;;16.34;100.00;100677.69;6199553;22;20036;-71
2023/08/04 06:00:41;;;;;;;6.65;6.07;;;;;;;16.23;100.00;100669.69;6201205;23;20032;-71
2023/08/04 06:03:08;;;;;;;6.53;6.03;;;;;;;16.45;100.00;100691.91;6202610;23;20034;-71
2023/08/04 06:05:34;;;;;;;10.27;6.50;;;;;;;16.22;100.00;100653.97;6175861;23;20020;-71
2023/08/04 06:08:01;;;;;;;6.55;6.05;;;;;;;16.18;100.00;100648.03;6196194;23;20024;-72
2023/08/04 06:10:27;;;;;;;8.68;6.82;;;;;;;15.45;100.00;100527.41;6177086;23;20019;-71
2023/08/04 06:12:54;;;;;;;7.07;6.38;;;;;;;16.33;100.00;100678.63;6200428;23;20034;-71
2023/08/04 06:15:21;;;;;;;7.95;6.70;;;;;;;16.27;100.00;100679.09;6154795;23;20024;-72
2023/08/04 06:17:47;;;;;;;9.63;6.88;;;;;;;16.18;100.00;100634.81;6198622;23;20016;-71
2023/08/04 06:20:14;;;;;;;7.65;6.95;;;;;;;16.48;100.00;100684.56;6153987;23;20106;-71
2023/08/04 06:22:40;;;;;;;12.40;6.95;;;;;;;16.22;100.00;100628.31;6172708;23;20036;-71
2023/08/04 06:25:07;;;;;;;8.45;6.82;;;;;;;15.88;100.00;100572.66;6171604;23;20023;-72
2023/08/04 06:27:34;;;;;;;7.47;6.78;;;;;;;16.35;100.00;100652.03;6202270;23;20095;-70
2023/08/04 06:30:00;;;;;;;9.50;6.88;;;;;;;16.66;100.00;100695.53;6200907;23;20502;-72
2023/08/04 06:32:28;;;;;;;8.57;6.20;;;;;;;16.66;100.00;100690.25;6202939;23;20004;-73
2023/08/04 06:34:55;;;;;;;7.80;6.70;;;;;;;16.75;100.00;100689.50;6201475;23;20027;-71
2023/08/04 06:37:21;;;;;;;8.05;6.40;;;;;;;16.86;100.00;100687.88;6201805;23;20087;-70
2023/08/04 06:39:49;;;;;;;13.40;7.05;;;;;;;16.37;100.00;100591.00;6198287;23;20039;-72
2023/08/04 06:42:17;;;;;;;11.95;7.38;;;;;;;16.93;100.00;100667.84;6202352;23;20055;-72
2023/08/04 06:44:43;;;;;;;19.38;7.25;;;;;;;17.19;100.00;100670.22;6175241;23;20019;-72
2023/08/04 06:47:10;;;;;;;7.43;6.47;;;;;;;16.93;100.00;100631.56;6174676;23;20090;-72
2023/08/04 06:49:36;;;;;;;13.30;6.95;;;;;;;17.08;100.00;100652.56;6202999;23;20111;-72
2023/08/04 06:52:03;;;;;;;7.57;6.57;;;;;;;17.24;100.00;100654.78;6196950;23;20678;-71
2023/08/04 06:54:30;;;;;;;7.30;6.70;;;;;;;16.97;100.00;100571.19;6199494;23;20039;-72
2023/08/04 06:56:56;;;;;;;6.63;6.13;;;;;;;17.30;100.00;100595.94;6173235;23;20044;-71
2023/08/04 06:59:23;;;;;;;12.13;6.78;;;;;;;17.69;100.00;100636.91;6204170;23;20031;-73
2023/08/04 07:01:49;;;;;;;11.73;6.78;;;;;;;17.37;100.00;100557.31;6172948;23;20038;-72
2023/08/04 07:04:17;;;;;;;7.72;6.93;;;;;;;17.54;100.00;100554.13;6200018;23;20029;-71
2023/08/04 07:06:43;;;;;;;7.00;6.50;;;;;;;17.98;100.00;100577.03;6171568;23;20055;-72
2023/08/04 07:09:10;;;;;;;8.65;6.43;;;;;;;18.34;100.00;100581.00;6170973;23;20028;-72
2023/08/04 07:11:36;;;;;;;7.18;6.50;;;;;;;18.38;100.00;100557.66;6201498;23;20031;-71
2023/08/04 07:14:03;;;;;;;6.90;6.35;;;;;;;18.56;99.13;100561.34;6206341;23;20613;-71
2023/08/04 07:16:29;;;;;;;12.18;8.48;;;;;;;18.18;96.83;100499.16;6194572;23;20016;-74
2023/08/04 07:18:55;;;;;;;6.25;5.68;;;;;;;18.64;95.82;100526.13;6203684;23;20031;-72
2023/08/04 07:21:22;;;;;;;6.85;6.43;;;;;;;18.70;94.31;100504.31;6200853;23;20528;-72
2023/08/04 07:23:48;;;;;;;7.32;6.72;;;;;;;18.19;93.75;100455.69;6199987;23;20043;-72
2023/08/04 07:26:15;;;;;;;6.65;6.05;;;;;;;18.43;94.50;100516.44;6184448;23;20542;-72
2023/08/04 07:28:41;;;;;;;9.18;6.40;;;;;;;18.45;95.36;100533.09;6177999;23;20506;-72
2023/08/04 07:31:09;;;;;;;7.05;6.45;;;;;;;18.31;96.28;100509.53;6204221;23;20470;-71
2023/08/04 07:33:37;;;;;;;7.75;6.40;;;;;;;18.45;95.61;100500.38;6201090;23;20027;-73
2023/08/04 07:36:04;;;;;;;6.90;6.30;;;;;;;19.13;93.64;100535.88;6171371;23;20020;-72
2023/08/04 07:38:30;;;;;;;6.75;6.10;;;;;;;19.02;91.01;100466.03;6197881;23;20643;-71
2023/08/04 07:40:58;;;;;;;7.18;6.45;;;;;;;19.28;89.95;100487.56;6200212;23;20041;-72
2023/08/04 07:43:25;;;;;;;6.72;6.13;;;;;;;19.25;89.50;100486.03;6173044;23;20012;-71
2023/08/04 07:45:53;;;;;;;9.05;6.97;;;;;;;19.12;89.21;100478.38;6201058;23;20431;-72
2023/08/04 07:48:19;;;;;;;7.57;6.88;;;;;;;18.91;89.25;100465.19;6202604;23;20082;-71
2023/08/04 07:50:48;;;;;;;6.70;6.10;;;;;;;18.55;90.13;100432.13;6169896;23;20038;-71
2023/08/04 07:53:14;;;;;;;7.88;6.20;;;;;;;19.22;90.97;100512.91;6200752;23;20012;-71
2023/08/04 07:55:40;;;;;;;7.40;6.90;;;;;;;19.26;89.26;100497.50;6174941;23;20031;-71
2023/08/04 07:58:07;;;;;;;7.00;6.40;;;;;;;19.33;89.18;100478.19;6201457;22;20028;-72
2023/08/04 08:00:34;;;;;;;6.75;6.10;;;;;;;18.93;87.78;100398.59;6204207;23;20038;-72
2023/08/04 08:03:01;;;;;;;7.55;6.38;;;;;;;19.40;87.85;100456.31;6205862;23;20016;-71
2023/08/04 08:05:28;;;;;;;12.73;6.50;;;;;;;18.71;87.75;100403.16;6200493;23;20032;-72
2023/08/04 08:07:54;;;;;;;7.40;6.38;;;;;;;18.40;92.17;100478.66;6202162;23;20646;-72
2023/08/04 08:10:20;;;;;;;8.90;6.05;;;;;;;18.54;94.36;100537.59;6205118;23;20096;-72
2023/08/04 08:12:49;;;;;;;7.80;6.35;;;;;;;18.74;94.81;100533.16;6198841;23;20085;-72
2023/08/04 08:15:16;;;;;;;6.60;6.10;;;;;;;18.80;91.63;100467.97;6197363;23;20782;-75
2023/08/04 08:17:42;;;;;;;6.88;6.22;;;;;;;18.99;87.44;100359.94;6195957;23;20059;-72
2023/08/04 08:20:09;;;;;;;9.30;6.40;;;;;;;19.31;83.18;100356.94;6175708;23;20089;-72
2023/08/04 08:22:35;;;;;;;8.10;6.15;;;;;;;19.62;85.33;100461.31;6202106;23;20024;-71
2023/08/04 08:25:02;;;;;;;6.93;6.28;;;;;;;19.41;86.17;100437.56;6182199;23;20103;-71
2023/08/04 08:27:28;;;;;;;6.70;6.20;;;;;;;19.85;85.04;100447.69;6198432;22;20679;-72
2023/08/04 08:29:55;;;;;;;7.10;6.60;;;;;;;19.94;83.91;100441.47;6181436;23;20186;-73
2023/08/04 08:32:22;;;;;;;9.25;6.57;;;;;;;20.07;82.88;100420.66;6199075;23;20726;-71
2023/08/04 08:34:49;;;;;;;7.18;6.60;;;;;;;20.15;81.84;100417.25;6164596;23;20019;-72
2023/08/04 08:37:16;;;;;;;7.13;6.63;;;;;;;20.31;82.11;100438.75;6197908;23;20472;-73
2023/08/04 08:39:42;;;;;;;7.50;6.38;;;;;;;19.49;81.33;100275.31;6175369;23;20415;-72
2023/08/04 08:42:09;;;;;;;7.85;7.00;;;;;;;20.31;80.21;100366.78;6199677;23;20028;-72
2023/08/04 08:44:35;;;;;;;7.47;6.78;;;;;;;20.42;79.01;100330.25;6202413;23;20034;-72
2023/08/04 08:47:02;;;;;;;7.07;6.40;;;;;;;20.47;79.56;100342.13;6200455;23;20413;-71
2023/08/04 08:49:36;;;;;;;7.20;6.68;;;;;;;20.85;77.65;100364.13;6173517;23;20032;-72
2023/08/04 08:52:07;;;;;;;8.32;7.07;;;;;;;20.78;77.13;100332.91;6200340;23;20191;-73
2023/08/04 08:54:34;;;;;;;7.38;6.78;;;;;;;20.40;76.28;100261.09;6198497;23;20130;-71
2023/08/04 08:57:01;;;;;;;6.75;6.25;;;;;;;19.73;76.75;100170.97;6203696;23;20034;-70
2023/08/04 08:59:28;;;;;;;6.43;5.93;;;;;;;20.56;76.62;100320.88;6201994;23;20028;-71
2023/08/04 09:01:55;;;;;;;7.32;6.88;;;;;;;20.37;78.22;100348.53;6203120;23;20008;-72
2023/08/04 09:04:22;;;;;;;6.93;6.32;;;;;;;20.63;77.79;100360.13;6203408;23;20035;-69
2023/08/04 09:06:49;;;;;;;6.78;6.20;;;;;;;20.86;76.85;100362.31;6183379;23;20087;-69
2023/08/04 09:09:16;;;;;;;7.30;6.65;;;;;;;20.84;75.96;100334.94;6198783;23;20032;-70
2023/08/04 09:11:43;;;;;;;6.65;6.15;;;;;;;20.82;74.90;100323.59;6201387;23;20378;-71
2023/08/04 09:14:10;;;;;;;6.32;5.93;;;;;;;20.93;75.18;100336.69;6198789;23;20093;-72
2023/08/04 09:16:37;;;;;;;6.43;6.03;;;;;;;20.67;74.63;100288.66;6174280;23;20016;-73
2023/08/04 09:19:06;;;;;;;6.38;6.00;;;;;;;21.19;74.29;100336.69;6179290;23;20075;-69
2023/08/04 09:21:34;;;;;;;7.03;6.20;;;;;;;21.97;72.44;100356.22;6192842;23;20088;-69
2023/08/04 09:24:08;;;;;;;6.68;6.00;;;;;;;22.49;70.44;100324.78;6199093;23;20034;-70
2023/08/04 09:26:43;;;;;;;6.97;6.35;;;;;;;23.12;65.92;100239.44;6202859;23;20028;-69
2023/08/04 09:29:10;;;;;;;6.47;6.03;;;;;;;22.83;64.68;100160.56;6199496;23;20065;-71
2023/08/04 09:31:40;;;;;;;6.50;6.03;;;;;;;22.34;64.95;100114.41;6197704;23;20545;-70
2023/08/04 09:34:09;;;;;;;7.07;6.43;;;;;;;20.89;65.65;100012.59;6203025;23;20411;-71
2023/08/04 09:36:42;;;;;;;8.05;6.28;;;;;;;21.31;67.34;100166.44;6202822;23;20038;-70
2023/08/04 09:39:12;;;;;;;6.10;5.80;;;;;;;21.49;68.09;100247.25;6172364;23;20097;-70
2023/08/04 09:41:42;;;;;;;6.20;5.80;;;;;;;21.19;67.64;100173.03;6198002;23;20724;-70
2023/08/04 09:44:10;;;;;;;6.30;5.80;;;;;;;21.39;67.45;100194.97;6199860;23;20023;-71
2023/08/04 09:46:50;;;;;;;6.28;5.88;;;;;;;21.57;67.44;100250.94;6176551;23;20032;-71
2023/08/04 09:49:18;;;;;;;6.85;6.20;;;;;;;21.16;68.83;100240.91;6199263;23;20512;-71
2023/08/04 09:51:45;;;;;;;6.93;6.32;;;;;;;20.88;68.15;100179.75;6196099;23;20004;-71
2023/08/04 09:54:13;;;;;;;7.45;6.82;;;;;;;21.21;68.21;100253.78;6196803;23;20023;-70
2023/08/04 09:56:41;;;;;;;6.78;5.97;;;;;;;21.68;68.95;100341.44;6194024;23;20027;-71
2023/08/04 09:59:07;;;;;;;6.65;6.10;;;;;;;21.48;67.77;100266.94;6167771;23;20013;-74
2023/08/04 10:01:34;;;;;;;6.25;5.95;;;;;;;21.69;65.49;100198.91;6202138;23;20040;-71
2023/08/04 10:04:02;;;;;;;6.15;5.75;;;;;;;21.42;63.64;100104.72;6200101;23;20517;-70
2023/08/04 10:06:30;;;;;;;6.20;5.75;;;;;;;20.98;65.15;100118.28;6176830;23;20563;-71
2023/08/04 10:08:56;;;;;;;6.47;6.00;;;;;;;20.91;66.58;100216.81;6196700;23;20005;-71
2023/08/04 10:11:23;;;;;;;10.23;8.65;;;;;;;20.65;69.81;100310.16;6082203;23;20284;-74
2023/08/04 10:13:54;;;;;;;6.50;6.00;;;;;;;19.73;71.90;100271.31;6195690;23;20081;-71
2023/08/04 10:16:30;;;;;;;6.32;5.90;;;;;;;19.57;72.77;100263.94;6200900;23;20042;-71
2023/08/04 10:19:03;;;;;;;6.50;5.90;;;;;;;20.10;73.94;100403.53;6195800;23;20102;-71
2023/08/04 10:21:36;;;;;;;6.90;6.30;;;;;;;19.45;73.85;100303.22;6198990;23;20026;-72
2023/08/04 10:24:08;;;;;;;6.38;5.93;;;;;;;20.12;74.53;100423.69;6183908;23;20051;-71
2023/08/04 10:26:45;;;;;;;6.40;5.90;;;;;;;20.27;73.87;100432.03;6198592;23;20514;-71
2023/08/04 10:29:12;;;;;;;6.05;5.63;;;;;;;20.57;71.67;100371.38;6141461;23;20110;-72
2023/08/04 10:31:55;;;;;;;6.93;6.10;;;;;;;20.73;68.42;100298.72;6197640;23;20397;-71
2023/08/04 10:34:32;;;;;;;6.10;5.72;;;;;;;20.46;68.75;100252.47;6178106;23;20020;-72
2023/08/04 10:37:11;;;;;;;6.45;5.95;;;;;;;20.94;65.82;100215.63;6171113;23;20036;-72
2023/08/04 10:39:46;;;;;;;6.20;5.80;;;;;;;21.09;64.82;100226.56;6201503;23;20024;-72
2023/08/04 10:42:12;;;;;;;6.15;5.85;;;;;;;21.51;66.22;100289.81;6174089;23;20029;-71
2023/08/04 10:44:52;;;;;;;6.10;5.53;;;;;;;21.29;65.23;100206.63;6182279;23;20031;-73
2023/08/04 10:47:53;;;;;;;6.22;5.85;;;;;;;21.92;64.41;100292.59;6171651;23;20027;-70
2023/08/04 10:50:22;;;;;;;5.90;5.60;;;;;;;21.66;62.46;100124.47;6197728;23;20039;-71
2023/08/04 10:52:50;;;;;;;6.32;5.78;;;;;;;21.74;62.11;100150.34;6159270;23;20012;-71
2023/08/04 10:55:16;;;;;;;6.50;6.20;;;;;;;21.62;59.95;100051.03;6199062;23;20024;-74
2023/08/04 10:57:43;;;;;;;5.68;5.32;;;;;;;20.77;61.44;99976.53;6176521;23;20024;-70
2023/08/04 11:00:11;;;;;;;6.05;5.65;;;;;;;20.16;64.86;100067.22;6171357;23;20020;-73
2023/08/04 11:02:38;;;;;;;6.13;5.78;;;;;;;21.28;64.66;100258.31;6199598;23;20021;-72
2023/08/04 11:05:09;;;;;;;6.30;5.90;;;;;;;21.42;63.93;100232.03;6197688;23;20020;-71
2023/08/04 11:07:35;;;;;;;6.30;5.90;;;;;;;21.56;62.77;100194.03;6199280;23;20043;-70
2023/08/04 11:10:05;;;;;;;6.50;5.90;;;;;;;21.54;63.51;100208.56;6196034;23;20568;-71
2023/08/04 11:12:33;;;;;;;6.40;5.90;;;;;;;22.35;62.70;100297.88;6201255;23;20052;-72
2023/08/04 11:15:00;;;;;;;5.97;5.68;;;;;;;22.55;59.99;100178.00;6195403;23;20082;-70
2023/08/04 11:17:27;;;;;;;5.95;5.65;;;;;;;22.18;57.63;100014.50;6199075;23;20018;-70
2023/08/04 11:19:53;;;;;;;6.20;5.82;;;;;;;22.15;58.06;100065.66;6170099;23;20020;-70
2023/08/04 11:22:22;;;;;;;6.13;5.72;;;;;;;22.56;59.72;100180.53;6174640;23;20199;-73